Time;durP1;ratioP1;P1;durP2;ratioP2;P2;SDS_P1;SDS_P2;PMS_P1;PMS_P2;Temp;Humidity;BMP_temperature;BMP_pressure;BME280_temperature;BME280_humidity;BME280_pressure;Samples;Min_cycle;Max_cycle;Signal;HPM_P1;HPM_P2
2023/06/12 07:00:50;;;;;;;18.13;2.90;;;;;;;17.33;33.13;100709.50;6176555;22;20160;-89
2023/06/12 07:03:19;;;;;;;10.73;2.15;;;;;;;16.98;32.73;100639.56;6201194;23;20028;-89
2023/06/12 07:05:49;;;;;;;21.40;2.30;;;;;;;16.99;33.57;100654.22;6205336;23;20027;-91
2023/06/12 07:08:17;;;;;;;11.63;2.35;;;;;;;17.23;33.90;100692.44;6198219;23;20013;-88
2023/06/12 07:10:46;;;;;;;14.60;2.42;;;;;;;16.92;34.57;100646.41;6150047;23;20021;-90
2023/06/12 07:13:14;;;;;;;12.10;2.63;;;;;;;17.42;33.99;100679.09;6174134;23;20021;-87
2023/06/12 07:15:47;;;;;;;21.63;2.70;;;;;;;17.69;33.87;100690.97;6193869;23;20052;-86
2023/06/12 07:18:13;;;;;;;14.50;2.80;;;;;;;17.59;33.32;100668.03;6168368;23;20027;-88
2023/06/12 07:20:40;;;;;;;16.73;4.13;;;;;;;17.66;33.11;100647.38;6193891;23;20036;-86
2023/06/12 07:23:07;;;;;;;20.88;3.67;;;;;;;17.91;34.60;100673.34;6193089;23;20021;-87
2023/06/12 07:25:37;;;;;;;17.42;3.20;;;;;;;17.86;34.09;100652.22;6195764;23;20035;-87
2023/06/12 07:28:03;;;;;;;10.02;2.55;;;;;;;18.01;33.13;100657.25;6193473;23;20021;-86
2023/06/12 07:30:30;;;;;;;;;;;;;;;18.21;31.87;100675.09;6196962;23;20021;-91
2023/06/12 07:32:57;;;;;;;22.75;2.88;;;;;;;18.09;31.40;100674.94;6144049;23;19971;-86
2023/06/12 07:35:28;;;;;;;20.63;2.42;;;;;;;17.82;32.11;100629.94;6184199;23;20025;-87
2023/06/12 07:37:55;;;;;;;13.07;2.90;;;;;;;18.29;33.01;100674.22;6166251;23;20056;-89
2023/06/12 07:40:22;;;;;;;25.23;2.88;;;;;;;18.10;30.98;100659.97;6168179;23;20028;-88
2023/06/12 07:42:48;;;;;;;19.50;3.20;;;;;;;18.19;33.26;100648.88;6166010;23;20020;-87
2023/06/12 07:45:14;;;;;;;15.90;2.50;;;;;;;18.30;32.56;100656.47;6187220;23;20083;-87
2023/06/12 07:47:45;;;;;;;28.20;6.35;;;;;;;18.43;31.05;100667.66;6198638;23;20667;-87
2023/06/12 07:50:13;;;;;;;10.35;2.45;;;;;;;18.36;30.89;100664.59;6178140;23;20024;-86
2023/06/12 07:52:41;;;;;;;10.90;3.40;;;;;;;18.30;31.93;100650.13;6176870;23;20021;-86
2023/06/12 07:55:11;;;;;;;15.55;2.53;;;;;;;18.45;30.72;100676.44;6197564;23;20025;-88
2023/06/12 07:57:39;;;;;;;16.85;4.00;;;;;;;18.30;31.61;100633.50;6171570;23;20021;-88
2023/06/12 08:00:07;;;;;;;36.55;3.55;;;;;;;18.24;29.37;100623.75;6143086;23;20024;-89
2023/06/12 08:03:02;;;;;;;69.72;6.57;;;;;;;18.49;30.85;100633.91;6192123;23;20044;-92
2023/06/12 08:05:37;;;;;;;22.58;2.67;;;;;;;18.62;29.87;100647.84;6140194;23;20029;-87
2023/06/12 08:08:12;;;;;;;41.97;3.10;;;;;;;18.71;30.91;100659.69;6193821;23;20040;-91
2023/06/12 08:10:40;;;;;;;9.25;2.80;;;;;;;18.75;30.84;100658.72;6191545;23;20013;-94
2023/06/12 08:13:07;;;;;;;29.80;3.95;;;;;;;18.57;29.33;100628.66;6195772;23;20075;-89
2023/06/12 08:15:34;;;;;;;30.13;3.20;;;;;;;18.83;31.19;100673.66;6156403;23;20032;-86
2023/06/12 08:18:00;;;;;;;11.82;2.78;;;;;;;18.88;31.70;100654.06;6176150;23;20055;-86
2023/06/12 08:20:27;;;;;;;13.52;2.63;;;;;;;19.05;29.52;100661.47;6180570;23;20016;-87
2023/06/12 08:22:58;;;;;;;43.72;3.63;;;;;;;18.99;29.07;100637.84;6174619;23;20025;-87
2023/06/12 08:25:25;;;;;;;76.22;5.88;;;;;;;19.02;29.56;100668.47;6175757;23;20028;-88
2023/06/12 08:27:51;;;;;;;;;;;;;;;19.17;29.99;100677.34;6176474;23;20019;-85
2023/06/12 08:30:17;;;;;;;14.40;2.50;;;;;;;19.31;30.33;100672.34;6149488;23;19923;-86
2023/06/12 08:32:45;;;;;;;26.17;3.07;;;;;;;19.15;28.98;100629.75;6191938;23;20064;-85
2023/06/12 08:35:14;;;;;;;19.33;2.65;;;;;;;19.39;28.72;100652.03;6198723;23;20253;-87
2023/06/12 08:37:49;;;;;;;25.60;3.20;;;;;;;19.24;30.74;100625.75;6193866;23;20013;-85
2023/06/12 08:40:18;;;;;;;20.33;2.90;;;;;;;19.27;28.43;100627.03;6167190;23;20044;-86
2023/06/12 08:42:53;;;;;;;13.43;2.72;;;;;;;19.51;27.62;100648.53;6172710;23;20033;-88
2023/06/12 08:45:27;;;;;;;19.63;3.15;;;;;;;19.32;27.32;100615.72;6144781;23;20080;-86
2023/06/12 08:47:55;;;;;;;33.30;3.08;;;;;;;19.25;28.80;100609.94;6146806;23;20021;-86
2023/06/12 08:50:27;;;;;;;19.40;2.80;;;;;;;19.51;29.46;100626.34;6146890;23;19990;-84
2023/06/12 08:53:02;;;;;;;11.75;2.58;;;;;;;19.78;29.45;100649.91;6125217;23;20161;-87
2023/06/12 08:55:31;;;;;;;11.52;2.35;;;;;;;19.77;28.75;100630.81;6140703;23;20056;-86
2023/06/12 08:58:00;;;;;;;12.23;2.63;;;;;;;19.78;30.59;100635.22;6140356;23;20100;-86
2023/06/12 09:00:29;;;;;;;13.88;3.60;;;;;;;19.92;29.12;100621.84;6142233;23;20013;-86
2023/06/12 09:03:00;;;;;;;12.38;2.97;;;;;;;19.99;29.09;100618.50;6139483;23;20097;-87
2023/06/12 09:05:46;;;;;;;36.78;5.07;;;;;;;19.91;30.32;100604.38;6119136;23;20049;-90
2023/06/12 09:08:19;;;;;;;26.13;4.28;;;;;;;19.91;28.41;100640.47;6077724;23;20691;-86
2023/06/12 09:10:49;;;;;;;13.52;3.67;;;;;;;19.82;29.57;100647.25;6097662;23;20033;-86
2023/06/12 09:13:15;;;;;;;14.30;2.95;;;;;;;19.63;29.45;100611.66;6051347;23;20022;-88
2023/06/12 09:15:51;;;;;;;50.05;3.55;;;;;;;19.70;30.03;100623.03;6093104;23;20454;-82
2023/06/12 09:18:18;;;;;;;34.90;2.95;;;;;;;19.75;30.18;100628.41;6118705;23;20017;-85
2023/06/12 09:20:49;;;;;;;11.82;3.13;;;;;;;19.77;29.99;100626.09;6122071;23;20022;-84
2023/06/12 09:23:16;;;;;;;31.58;3.85;;;;;;;19.87;29.20;100635.94;6121997;23;20406;-83
2023/06/12 09:25:43;;;;;;;41.35;12.32;;;;;;;19.78;28.01;100638.00;6148865;23;20022;-87
2023/06/12 09:28:11;;;;;;;55.45;5.28;;;;;;;20.02;29.59;100603.94;6146171;23;20021;-84
2023/06/12 09:30:42;;;;;;;25.98;3.20;;;;;;;20.21;28.90;100623.63;6143794;23;20041;-80
2023/06/12 09:33:11;;;;;;;38.13;4.05;;;;;;;20.01;28.50;100630.06;6097452;23;20029;-83
2023/06/12 09:35:56;;;;;;;30.23;2.97;;;;;;;19.76;26.50;100591.16;6144875;23;20052;-86
2023/06/12 09:38:35;;;;;;;33.05;4.00;;;;;;;20.13;27.54;100628.13;6128244;23;20462;-91
2023/06/12 09:41:06;;;;;;;38.20;3.40;;;;;;;20.18;26.73;100604.88;6183306;23;20024;-85
2023/06/12 09:43:32;;;;;;;5.20;2.38;;;;;;;20.14;28.58;100595.63;6180246;23;20861;-84
2023/06/12 09:46:03;;;;;;;32.15;2.90;;;;;;;20.09;28.19;100581.94;6173140;23;20020;-83
2023/06/12 09:48:36;;;;;;;14.43;3.03;;;;;;;20.27;27.04;100597.25;6175813;23;20063;-82
2023/06/12 09:51:05;;;;;;;15.30;3.30;;;;;;;20.31;27.67;100598.16;6172910;23;20917;-89
2023/06/12 09:53:36;;;;;;;28.13;3.55;;;;;;;20.27;28.73;100579.78;6156372;23;20020;-82
2023/06/12 09:56:08;;;;;;;39.40;3.88;;;;;;;20.57;27.73;100603.38;6181600;23;20069;-81
2023/06/12 09:58:36;;;;;;;11.25;2.72;;;;;;;20.71;28.07;100600.25;6183230;23;20028;-83
2023/06/12 10:01:06;;;;;;;8.82;2.53;;;;;;;20.69;28.15;100596.19;6185122;23;20020;-82
2023/06/12 10:03:38;;;;;;;13.35;2.70;;;;;;;20.82;27.74;100611.69;6132010;23;20021;-83
2023/06/12 10:06:06;;;;;;;17.77;3.70;;;;;;;20.56;26.56;100589.81;6191036;23;20020;-83
2023/06/12 10:08:35;;;;;;;41.05;4.57;;;;;;;20.35;27.22;100565.75;6174530;23;20021;-85
2023/06/12 10:11:04;;;;;;;13.95;3.13;;;;;;;20.61;27.80;100595.16;6194680;23;20016;-85
2023/06/12 10:13:34;;;;;;;14.55;3.03;;;;;;;20.62;27.98;100591.22;6187523;23;20070;-88
2023/06/12 10:16:01;;;;;;;30.55;3.10;;;;;;;20.67;28.30;100591.00;6198390;23;20025;-83
2023/06/12 10:18:28;;;;;;;12.98;3.10;;;;;;;20.85;28.06;100599.84;6195927;23;20017;-84
2023/06/12 10:20:55;;;;;;;17.83;3.15;;;;;;;21.01;27.71;100597.97;6197356;23;20024;-82
2023/06/12 10:23:24;;;;;;;10.77;2.75;;;;;;;21.10;27.55;100587.50;6192800;23;20094;-83
2023/06/12 10:25:53;;;;;;;4.35;2.40;;;;;;;20.88;27.37;100586.06;6169024;23;20032;-91
2023/06/12 10:28:19;;;;;;;9.13;2.65;;;;;;;21.08;28.29;100586.25;6198804;23;20077;-85
2023/06/12 10:31:11;;;;;;;19.33;3.50;;;;;;;21.10;27.52;100581.94;6193058;23;20076;-83
2023/06/12 10:33:55;;;;;;;21.73;3.03;;;;;;;21.14;27.59;100579.28;6193339;23;20017;-85
2023/06/12 10:36:21;;;;;;;9.80;2.65;;;;;;;21.05;27.00;100556.34;6197134;23;20024;-89
2023/06/12 10:38:48;;;;;;;8.83;2.67;;;;;;;21.15;27.41;100557.81;6199332;23;20021;-89
2023/06/12 10:41:31;;;;;;;35.97;4.03;;;;;;;21.30;26.51;100568.19;6201452;23;20241;-83
2023/06/12 10:43:57;;;;;;;9.73;2.95;;;;;;;21.37;26.27;100548.94;6194246;23;20099;-86
2023/06/12 10:46:23;;;;;;;11.60;2.95;;;;;;;21.51;26.10;100560.47;6173785;23;20075;-84
2023/06/12 10:48:51;;;;;;;9.32;2.67;;;;;;;21.45;26.02;100536.03;6165481;23;20739;-84
2023/06/12 10:51:33;;;;;;;16.23;3.28;;;;;;;21.38;25.94;100541.41;6147539;23;20017;-86
2023/06/12 10:54:03;;;;;;;24.35;3.40;;;;;;;21.36;27.30;100516.75;6196854;23;20017;-83
2023/06/12 10:56:31;;;;;;;13.60;2.60;;;;;;;21.44;26.37;100556.69;6196709;23;20040;-83
2023/06/12 10:58:58;;;;;;;11.82;3.08;;;;;;;21.38;27.24;100555.31;6195061;23;20064;-89
2023/06/12 11:01:24;;;;;;;11.48;3.30;;;;;;;21.51;26.32;100554.09;6193522;23;20481;-86
2023/06/12 11:03:54;;;;;;;16.80;4.05;;;;;;;21.80;26.10;100533.38;6192658;23;20402;-84
2023/06/12 11:06:28;;;;;;;35.10;3.92;;;;;;;21.84;27.55;100550.16;6194754;23;20410;-82
2023/06/12 11:09:11;;;;;;;23.38;4.45;;;;;;;21.64;26.46;100549.25;6192497;23;20021;-86
2023/06/12 11:11:41;;;;;;;13.85;3.13;;;;;;;21.62;26.56;100527.34;6196941;23;20504;-80
2023/06/12 11:14:11;;;;;;;24.10;3.33;;;;;;;21.46;26.33;100524.56;6196033;23;20021;-84
2023/06/12 11:16:42;;;;;;;14.27;3.83;;;;;;;21.68;25.57;100559.31;6197532;23;20024;-88
2023/06/12 11:19:08;;;;;;;8.15;2.78;;;;;;;21.65;26.28;100536.94;6198290;23;20025;-87
2023/06/12 11:21:37;;;;;;;11.43;3.10;;;;;;;21.66;25.43;100536.59;6188178;23;20082;-89
2023/06/12 11:24:05;;;;;;;14.48;3.53;;;;;;;21.72;27.00;100548.25;6189344;23;20016;-86
2023/06/12 11:26:32;;;;;;;7.35;2.85;;;;;;;21.82;26.44;100553.31;6166102;23;20017;-89
2023/06/12 11:29:22;;;;;;;10.75;3.03;;;;;;;22.12;25.68;100548.09;6190121;23;20017;-85
2023/06/12 11:32:04;;;;;;;28.33;3.47;;;;;;;21.93;24.64;100548.03;6139077;23;20459;-90
2023/06/12 11:34:37;;;;;;;28.63;3.17;;;;;;;21.94;25.10;100527.34;6119317;23;20032;-84
2023/06/12 11:37:17;;;;;;;12.65;3.45;;;;;;;21.82;24.91;100517.13;6189014;23;20347;-86
2023/06/12 11:39:43;;;;;;;12.80;3.58;;;;;;;21.88;25.06;100532.38;6188725;23;20017;-88
2023/06/12 11:42:13;;;;;;;6.53;2.63;;;;;;;22.08;24.71;100549.16;6188213;23;20047;-88
2023/06/12 11:44:40;;;;;;;14.82;3.17;;;;;;;21.87;25.95;100502.94;6195075;23;20151;-84
2023/06/12 11:47:07;;;;;;;15.73;3.50;;;;;;;21.91;24.68;100512.16;6190988;23;20032;-86
2023/06/12 11:49:37;;;;;;;17.67;3.63;;;;;;;22.22;24.66;100530.06;6191928;23;20020;-93
2023/06/12 11:52:07;;;;;;;19.40;4.20;;;;;;;22.29;24.67;100494.00;6198690;23;20021;-89
2023/06/12 11:55:00;;;;;;;20.80;3.63;;;;;;;22.30;24.88;100525.44;6167195;23;20021;-89
2023/06/12 11:57:27;;;;;;;35.30;4.05;;;;;;;22.41;25.03;100534.84;6189332;23;20017;-89
2023/06/12 11:59:56;;;;;;;;;;;;;;;22.49;26.17;100509.59;6157827;23;20020;-86
2023/06/12 12:02:39;;;;;;;107.07;8.77;;;;;;;22.42;25.91;100475.19;6164604;23;19976;-92
2023/06/12 12:05:10;;;;;;;51.80;5.43;;;;;;;22.45;24.48;100516.22;6193163;23;20033;-88
2023/06/12 12:07:45;;;;;;;22.67;3.60;;;;;;;22.48;24.37;100502.41;6199498;23;20021;-92
2023/06/12 12:10:13;;;;;;;41.53;4.57;;;;;;;22.44;24.31;100518.22;6191331;23;20021;-89
2023/06/12 12:12:43;;;;;;;146.93;8.82;;;;;;;22.34;23.50;100504.03;6163268;23;20439;-88
2023/06/12 12:15:11;;;;;;;58.30;5.40;;;;;;;22.06;23.98;100471.56;6191789;23;20021;-86
2023/06/12 12:17:40;;;;;;;63.03;5.88;;;;;;;22.18;24.37;100498.50;6164448;23;20135;-89
2023/06/12 12:20:18;;;;;;;11.25;3.20;;;;;;;22.25;24.29;100462.44;6187611;23;20024;-87
2023/06/12 12:22:58;;;;;;;69.32;5.78;;;;;;;22.50;24.05;100502.81;6164870;23;20027;-89
2023/06/12 12:25:32;;;;;;;62.83;5.97;;;;;;;22.54;23.44;100496.53;6139398;23;20024;-88
2023/06/12 12:28:02;;;;;;;51.63;5.03;;;;;;;22.62;24.52;100501.91;6192333;23;20077;-90
2023/06/12 12:30:29;;;;;;;24.92;4.03;;;;;;;22.53;23.84;100470.63;6165641;23;20373;-90
2023/06/12 12:32:56;;;;;;;60.33;6.32;;;;;;;22.81;25.50;100477.97;6191102;23;20029;-84
2023/06/12 12:35:24;;;;;;;20.70;4.65;;;;;;;22.84;25.65;100480.03;6191172;23;20073;-87
2023/06/12 12:37:54;;;;;;;14.80;3.50;;;;;;;23.07;24.26;100499.63;6162398;23;20358;-85
2023/06/12 12:40:28;;;;;;;12.93;3.90;;;;;;;22.94;24.60;100474.69;6176846;23;20013;-85
2023/06/12 12:42:54;;;;;;;49.28;5.65;;;;;;;23.02;25.13;100491.56;6187146;23;20024;-86
2023/06/12 12:45:20;;;;;;;30.38;4.40;;;;;;;22.81;24.48;100489.13;6178068;23;20064;-87
2023/06/12 12:47:47;;;;;;;37.55;3.45;;;;;;;22.87;24.75;100473.72;6184569;23;20017;-87
2023/06/12 12:50:15;;;;;;;27.65;4.22;;;;;;;22.88;24.93;100484.50;6177458;23;20021;-86
2023/06/12 12:52:41;;;;;;;14.95;3.22;;;;;;;22.93;24.15;100483.44;6197664;23;20092;-88
2023/06/12 12:55:08;;;;;;;39.22;3.63;;;;;;;22.92;24.66;100476.22;6166759;23;20478;-87
2023/06/12 12:57:38;;;;;;;15.05;3.63;;;;;;;22.67;24.80;100443.06;6187600;23;20020;-90
2023/06/12 13:00:10;;;;;;;27.23;3.67;;;;;;;23.13;23.54;100496.16;6144139;23;20401;-85
2023/06/12 13:02:41;;;;;;;17.58;3.50;;;;;;;22.83;24.13;100461.69;6186977;23;20358;-86
2023/06/12 13:05:15;;;;;;;20.27;3.72;;;;;;;23.15;24.81;100485.47;6194183;23;20044;-84
2023/06/12 13:07:42;;;;;;;18.38;3.13;;;;;;;22.95;23.40;100465.16;6190800;23;20438;-89
2023/06/12 13:10:10;;;;;;;32.25;4.28;;;;;;;22.87;23.54;100476.50;6192664;23;20021;-88
2023/06/12 13:12:37;;;;;;;22.40;4.10;;;;;;;22.88;25.44;100466.94;6187609;23;20051;-88
2023/06/12 13:15:05;;;;;;;18.75;8.65;;;;;;;23.08;24.74;100479.75;6197116;23;20028;-87
2023/06/12 13:17:32;;;;;;;;;;;;;;;23.13;25.20;100478.63;6192698;23;20023;-83
2023/06/12 13:19:58;;;;;;;30.52;6.90;;;;;;;22.90;24.63;100467.41;6191754;23;19971;-88
2023/06/12 13:22:26;;;;;;;26.90;6.07;;;;;;;22.73;25.46;100483.41;6200462;23;20017;-88
2023/06/12 13:24:53;;;;;;;;;;;;;;;22.80;25.64;100473.56;6201483;23;20048;-89
2023/06/12 13:27:19;;;;;;;8.35;3.40;;;;;;;22.55;24.94;100456.31;6178275;23;19919;-90
2023/06/12 13:29:48;;;;;;;14.67;3.90;;;;;;;22.75;25.32;100477.47;6197490;23;20546;-86
2023/06/12 13:32:14;;;;;;;39.22;10.75;;;;;;;22.71;25.60;100466.25;6169241;23;20013;-90
2023/06/12 13:34:41;;;;;;;9.52;3.30;;;;;;;22.70;25.50;100469.41;6198625;23;20024;-90
2023/06/12 13:37:10;;;;;;;10.10;3.55;;;;;;;22.74;25.01;100457.13;6198897;23;20105;-86
2023/06/12 13:39:36;;;;;;;12.50;3.13;;;;;;;22.56;25.07;100432.88;6196792;23;20025;-90
2023/06/12 13:42:07;;;;;;;15.70;3.00;;;;;;;22.72;24.89;100472.63;6196606;23;20028;-88
2023/06/12 13:44:36;;;;;;;12.32;3.05;;;;;;;22.85;25.49;100467.72;6194762;23;20021;-86
2023/06/12 13:47:02;;;;;;;14.77;3.25;;;;;;;22.77;24.93;100477.91;6198378;23;20053;-89
2023/06/12 13:49:28;;;;;;;12.07;3.45;;;;;;;22.77;25.00;100465.94;6193952;23;20072;-90
2023/06/12 13:51:54;;;;;;;17.33;3.35;;;;;;;22.59;24.86;100452.47;6195960;23;20013;-83
2023/06/12 13:54:20;;;;;;;36.85;3.53;;;;;;;22.52;25.33;100464.25;6197353;23;20016;-92
2023/06/12 13:56:46;;;;;;;26.43;3.33;;;;;;;22.19;24.97;100447.22;6170364;23;20077;-87
2023/06/12 13:59:13;;;;;;;5.50;2.95;;;;;;;22.36;25.67;100421.72;6195658;23;20063;-84
2023/06/12 14:01:40;;;;;;;11.68;2.97;;;;;;;22.40;24.79;100449.66;6195110;23;20017;-90
2023/06/12 14:04:06;;;;;;;11.30;2.97;;;;;;;22.48;25.75;100454.19;6191948;23;20017;-89
2023/06/12 14:06:35;;;;;;;6.90;3.28;;;;;;;22.73;26.37;100447.16;6196287;23;20104;-85
2023/06/12 14:09:01;;;;;;;13.73;2.88;;;;;;;22.76;24.68;100459.56;6194151;23;20017;-92
2023/06/12 14:11:29;;;;;;;7.63;2.80;;;;;;;22.53;25.14;100453.91;6193148;23;20021;-88
2023/06/12 14:13:57;;;;;;;27.38;4.28;;;;;;;22.67;24.95;100443.06;6197914;23;20065;-85
2023/06/12 14:16:23;;;;;;;7.82;2.75;;;;;;;22.73;25.52;100438.00;6197975;23;20021;-85
2023/06/12 14:18:51;;;;;;;17.05;3.17;;;;;;;22.77;24.88;100436.06;6201205;23;20045;-87
2023/06/12 14:21:17;;;;;;;9.93;3.33;;;;;;;22.82;25.07;100455.31;6199964;23;20017;-89
2023/06/12 14:23:45;;;;;;;35.75;3.78;;;;;;;22.82;25.06;100451.72;6195525;23;20021;-92
2023/06/12 14:26:15;;;;;;;14.40;3.60;;;;;;;23.03;25.00;100459.72;6167584;23;20059;-85
2023/06/12 14:28:41;;;;;;;6.90;2.85;;;;;;;22.95;25.62;100465.16;6195757;23;20093;-91
2023/06/12 14:31:08;;;;;;;8.32;3.03;;;;;;;22.94;26.71;100441.22;6194788;23;20037;-87
2023/06/12 14:33:38;;;;;;;28.67;3.30;;;;;;;22.59;24.98;100430.16;6197012;23;20032;-92
2023/06/12 14:36:05;;;;;;;20.70;3.47;;;;;;;22.45;24.75;100419.53;6201616;23;20019;-90
2023/06/12 14:38:31;;;;;;;11.50;2.70;;;;;;;22.55;24.81;100456.31;6197019;23;20021;-85
2023/06/12 14:40:58;;;;;;;35.10;3.72;;;;;;;22.50;25.31;100446.28;6196533;23;20467;-89
2023/06/12 14:43:24;;;;;;;25.08;3.17;;;;;;;22.01;24.85;100425.28;6194114;23;20021;-86
2023/06/12 14:45:51;;;;;;;30.50;3.80;;;;;;;22.12;25.94;100424.72;6199209;23;20025;-87
2023/06/12 14:48:20;;;;;;;10.77;2.90;;;;;;;22.26;25.67;100445.38;6199166;23;20024;-85
2023/06/12 14:50:47;;;;;;;9.93;2.83;;;;;;;22.01;25.76;100413.34;6204710;23;20399;-86
2023/06/12 14:53:23;;;;;;;16.15;3.10;;;;;;;22.23;25.46;100457.25;6205877;23;20004;-86
2023/06/12 14:55:49;;;;;;;11.55;3.10;;;;;;;22.26;26.04;100450.16;6201850;23;20032;-82
2023/06/12 14:58:15;;;;;;;14.27;2.53;;;;;;;21.95;25.71;100426.78;6195428;23;20239;-88
2023/06/12 15:00:48;;;;;;;12.05;3.70;;;;;;;22.19;25.59;100436.06;6194478;23;20329;-85
2023/06/12 15:03:17;;;;;;;19.50;5.47;;;;;;;22.10;25.81;100436.25;6193068;23;20036;-89
2023/06/12 15:05:44;;;;;;;10.40;5.03;;;;;;;22.22;26.62;100460.44;6199485;23;20063;-90
2023/06/12 15:08:13;;;;;;;12.13;4.57;;;;;;;21.87;25.59;100393.56;6197369;23;20016;-88
2023/06/12 15:10:42;;;;;;;13.30;3.60;;;;;;;22.08;25.78;100446.13;6197547;23;20017;-91
2023/06/12 15:13:18;;;;;;;8.15;2.90;;;;;;;21.87;25.56;100415.81;6200037;23;20021;-89
2023/06/12 15:15:45;;;;;;;16.85;2.70;;;;;;;21.80;25.86;100419.25;6171947;23;20044;-91
2023/06/12 15:18:10;;;;;;;6.95;2.58;;;;;;;21.89;25.25;100438.56;6172088;23;20112;-90
2023/06/12 15:20:36;;;;;;;7.50;3.00;;;;;;;21.69;25.15;100416.22;6195942;23;20013;-93
2023/06/12 15:23:04;;;;;;;20.02;3.38;;;;;;;21.87;25.27;100435.31;6200441;23;20000;-88
2023/06/12 15:25:33;;;;;;;16.73;4.25;;;;;;;21.63;25.49;100403.75;6201819;23;20029;-91
2023/06/12 15:28:07;;;;;;;40.65;3.58;;;;;;;21.64;25.44;100443.50;6160916;23;20004;-87
2023/06/12 15:30:39;;;;;;;11.07;3.25;;;;;;;21.55;26.04;100399.16;6202783;23;20044;-89
2023/06/12 15:33:09;;;;;;;18.20;3.33;;;;;;;21.67;26.08;100424.13;6202660;23;20031;-89
2023/06/12 15:35:36;;;;;;;5.43;2.60;;;;;;;21.62;25.69;100412.44;6201299;23;20023;-90
2023/06/12 15:38:38;;;;;;;15.93;2.95;;;;;;;21.60;26.20;100440.63;6139932;23;20040;-88
2023/06/12 15:41:07;;;;;;;11.55;2.63;;;;;;;21.54;26.20;100453.19;6164199;23;20084;-87
2023/06/12 15:43:35;;;;;;;11.20;2.70;;;;;;;21.47;27.10;100456.63;6188318;23;20112;-89
2023/06/12 15:46:04;;;;;;;6.15;3.20;;;;;;;21.40;26.96;100458.41;6187817;23;20021;-86
2023/06/12 15:48:31;;;;;;;8.15;3.00;;;;;;;21.20;26.58;100433.25;6166105;23;20028;-87
2023/06/12 15:50:59;;;;;;;11.23;2.63;;;;;;;21.24;26.47;100416.66;6160930;23;20048;-86
2023/06/12 15:53:26;;;;;;;4.20;3.08;;;;;;;21.39;26.77;100428.97;6189338;23;20028;-87
2023/06/12 15:55:53;;;;;;;;;;;;;;;21.43;26.35;100446.56;6188044;23;20027;-87
2023/06/12 15:58:19;;;;;;;11.75;2.53;;;;;;;21.48;26.56;100461.00;6169609;23;20369;-91
2023/06/12 16:00:47;;;;;;;13.43;2.50;;;;;;;21.41;26.37;100438.56;6165992;23;20025;-86
2023/06/12 16:03:17;;;;;;;9.77;2.83;;;;;;;21.34;26.87;100441.97;6190832;23;20027;-90
2023/06/12 16:05:45;;;;;;;21.33;3.10;;;;;;;21.09;27.04;100427.41;6142000;23;20029;-88
2023/06/12 16:08:13;;;;;;;18.77;7.43;;;;;;;21.03;27.37;100453.06;6193287;23;20017;-88
2023/06/12 16:10:40;;;;;;;13.35;3.92;;;;;;;20.94;27.87;100449.63;6191589;23;20100;-87
2023/06/12 16:13:10;;;;;;;15.27;4.55;;;;;;;20.59;27.49;100414.09;6194327;23;20013;-89
2023/06/12 16:15:37;;;;;;;8.15;3.05;;;;;;;20.53;27.67;100432.19;6188056;23;20017;-87
2023/06/12 16:18:05;;;;;;;10.32;2.72;;;;;;;20.22;28.27;100408.66;6199289;23;20028;-89
2023/06/12 16:20:31;;;;;;;8.13;2.88;;;;;;;20.06;28.62;100425.22;6198161;23;20017;-87
2023/06/12 16:22:57;;;;;;;6.90;2.67;;;;;;;20.09;28.98;100446.72;6193609;23;20043;-85
2023/06/12 16:25:24;;;;;;;12.40;2.50;;;;;;;19.90;29.16;100440.97;6166808;23;20021;-85
2023/06/12 16:27:50;;;;;;;12.70;2.77;;;;;;;19.70;29.38;100443.53;6184664;23;20027;-85
2023/06/12 16:30:16;;;;;;;6.90;2.50;;;;;;;19.57;30.37;100441.88;6189302;23;20017;-83
2023/06/12 16:32:42;;;;;;;13.32;4.32;;;;;;;19.43;30.52;100431.13;6191195;23;20017;-89
2023/06/12 16:35:10;;;;;;;20.55;3.03;;;;;;;19.34;31.02;100447.06;6193196;23;20021;-83
2023/06/12 16:37:38;;;;;;;18.73;3.35;;;;;;;19.10;30.97;100425.63;6191208;23;20040;-82
2023/06/12 16:40:15;;;;;;;5.45;2.80;;;;;;;19.25;31.39;100463.00;6189317;23;20017;-91
2023/06/12 16:42:45;;;;;;;8.95;2.58;;;;;;;18.85;30.76;100419.22;6191310;23;20111;-88
2023/06/12 16:45:12;;;;;;;8.23;2.38;;;;;;;18.76;31.07;100416.53;6186468;23;20024;-82
2023/06/12 16:47:38;;;;;;;;;;;;;;;18.94;31.25;100464.31;6183552;23;20021;-83
2023/06/12 16:50:05;;;;;;;4.82;2.40;;;;;;;18.66;31.51;100427.22;6182165;23;20361;-85
2023/06/12 16:52:31;;;;;;;7.57;2.80;;;;;;;18.86;31.09;100465.19;6187296;23;20024;-84
2023/06/12 16:54:57;;;;;;;8.97;2.60;;;;;;;18.68;31.75;100450.66;6183871;23;20043;-85
2023/06/12 16:57:23;;;;;;;11.65;2.95;;;;;;;18.44;32.12;100429.22;6182090;23;20283;-83
2023/06/12 16:59:51;;;;;;;75.68;4.95;;;;;;;18.53;32.31;100441.00;6178727;23;20020;-83
2023/06/12 17:02:21;;;;;;;10.33;2.87;;;;;;;18.50;32.04;100449.16;6183143;23;20028;-86
2023/06/12 17:04:47;;;;;;;4.85;2.50;;;;;;;18.21;32.48;100425.97;6184156;23;20252;-86
2023/06/12 17:07:15;;;;;;;8.35;2.97;;;;;;;18.31;32.55;100457.97;6189662;23;20554;-86
2023/06/12 17:09:44;;;;;;;10.75;3.00;;;;;;;18.30;33.01;100461.88;6183191;23;20126;-85
2023/06/12 17:12:16;;;;;;;8.50;2.90;;;;;;;18.30;32.41;100456.34;6189734;23;20017;-86
2023/06/12 17:14:43;;;;;;;9.27;2.67;;;;;;;18.28;32.79;100465.00;6194319;23;20017;-88
2023/06/12 17:17:11;;;;;;;7.97;3.30;;;;;;;18.21;32.94;100448.13;6196849;23;20020;-89
2023/06/12 17:19:37;;;;;;;;;;;;;;;18.22;33.66;100465.53;6193794;23;20017;-88
2023/06/12 17:22:07;;;;;;;9.60;2.70;;;;;;;18.07;33.06;100464.94;6213084;23;19919;-88
2023/06/12 17:24:35;;;;;;;8.38;2.92;;;;;;;17.94;33.57;100443.88;6191623;23;20021;-92
2023/06/12 17:27:03;;;;;;;7.35;3.08;;;;;;;17.99;33.25;100463.06;6191661;23;20027;-87
2023/06/12 17:29:36;;;;;;;6.95;3.03;;;;;;;18.00;33.51;100472.97;6194453;23;20032;-87
2023/06/12 17:32:03;;;;;;;17.73;3.55;;;;;;;17.89;33.49;100455.16;6180307;23;20025;-86
2023/06/12 17:34:29;;;;;;;9.63;2.88;;;;;;;17.89;33.78;100463.44;6189297;23;20021;-86
2023/06/12 17:36:55;;;;;;;15.40;3.97;;;;;;;17.77;33.86;100453.09;6137321;23;20064;-87
2023/06/12 17:39:22;;;;;;;11.15;3.33;;;;;;;17.86;34.15;100477.13;6193943;23;20020;-88
2023/06/12 17:41:49;;;;;;;8.82;3.47;;;;;;;17.57;34.17;100438.03;6181928;23;20017;-87
2023/06/12 17:44:15;;;;;;;14.83;3.47;;;;;;;17.69;34.54;100481.56;6167132;23;20027;-88
2023/06/12 17:46:43;;;;;;;26.00;3.67;;;;;;;17.56;34.77;100475.13;6166523;23;20024;-84
2023/06/12 17:49:14;;;;;;;5.97;3.38;;;;;;;17.56;34.60;100477.88;6163092;23;20099;-88
2023/06/12 17:51:41;;;;;;;21.63;3.53;;;;;;;17.37;34.69;100447.06;6184231;23;20102;-90
2023/06/12 17:54:10;;;;;;;9.23;3.42;;;;;;;17.52;35.21;100488.00;6196102;23;20017;-89
2023/06/12 17:56:36;;;;;;;10.73;3.92;;;;;;;17.43;35.89;100454.03;6143572;23;20035;-90
2023/06/12 17:59:02;;;;;;;5.15;2.75;;;;;;;17.44;35.26;100441.81;6176405;23;20021;-91
2023/06/12 18:01:29;;;;;;;19.70;3.63;;;;;;;17.79;36.14;100485.97;6144663;23;20403;-88
2023/06/12 18:03:57;;;;;;;15.30;3.20;;;;;;;17.72;34.72;100474.56;6156451;23;20055;-89
2023/06/12 18:06:24;;;;;;;18.88;3.70;;;;;;;17.86;35.07;100491.78;6173512;23;20036;-89
2023/06/12 18:08:52;;;;;;;16.13;3.22;;;;;;;17.93;35.54;100485.72;6198899;23;20025;-89
2023/06/12 18:11:20;;;;;;;10.60;3.22;;;;;;;17.75;34.76;100473.91;6165563;23;20021;-88
2023/06/12 18:13:49;;;;;;;9.32;2.95;;;;;;;17.42;34.76;100449.66;6193649;23;20565;-88
2023/06/12 18:16:18;;;;;;;61.30;5.43;;;;;;;17.54;34.79;100482.94;6193711;23;20044;-88
2023/06/12 18:18:44;;;;;;;18.70;3.83;;;;;;;17.37;35.29;100469.97;6145462;23;20112;-89
2023/06/12 18:21:10;;;;;;;14.45;3.50;;;;;;;17.37;35.56;100474.69;6150138;23;20017;-89
2023/06/12 18:23:37;;;;;;;6.20;3.33;;;;;;;17.41;35.53;100492.25;6176931;23;20044;-89
2023/06/12 18:26:04;;;;;;;16.40;3.60;;;;;;;17.05;36.45;100445.69;6128706;23;20084;-89
2023/06/12 18:28:32;;;;;;;8.02;3.15;;;;;;;16.84;36.06;100418.75;6180006;23;20000;-90
2023/06/12 18:30:59;;;;;;;11.77;3.53;;;;;;;16.87;36.63;100444.91;6197226;23;20021;-89